Time;durP1;ratioP1;P1;durP2;ratioP2;P2;SDS_P1;SDS_P2;PMS_P1;PMS_P2;Temp;Humidity;BMP_temperature;BMP_pressure;BME280_temperature;BME280_humidity;BME280_pressure;Samples;Min_cycle;Max_cycle;Signal;HPM_P1;HPM_P2
2023/02/21 02:15:18;;;;;;;11.33;10.13;;;10.90;99.90;;;;;;5033297;28;20887;-50
2023/02/21 02:18:03;;;;;;;13.97;11.00;;;10.60;99.90;;;;;;5033242;28;20454;-50
2023/02/21 02:20:59;;;;;;;10.63;9.53;;;10.20;99.90;;;;;;5033227;28;20449;-48
2023/02/21 02:23:59;;;;;;;12.50;10.90;;;10.70;99.90;;;;;;5033118;28;20456;-49
2023/02/21 02:26:58;;;;;;;16.03;11.03;;;10.60;99.90;;;;;;5051112;28;20406;-50
2023/02/21 02:29:44;;;;;;;12.00;10.60;;;10.60;99.90;;;;;;5011531;28;20444;-49
2023/02/21 02:32:36;;;;;;;13.33;11.17;;;10.80;99.90;;;;;;5037147;28;20455;-50
2023/02/21 02:35:07;;;;;;;12.17;10.90;;;10.60;99.90;;;;;;5037101;28;20458;-49
2023/02/21 02:37:42;;;;;;;13.70;11.80;;;10.70;99.90;;;;;;5055207;28;21042;-49
2023/02/21 02:40:20;;;;;;;12.73;11.30;;;10.80;99.90;;;;;;5037144;28;20481;-48
2023/02/21 02:42:59;;;;;;;12.73;10.80;;;10.30;99.90;;;;;;5055423;28;20490;-49
2023/02/21 02:45:30;;;;;;;14.30;11.40;;;10.80;99.90;;;;;;5036929;28;20578;-48
2023/02/21 02:48:02;;;;;;;13.17;11.00;;;10.70;99.90;;;;;;5054760;28;20522;-50
2023/02/21 02:50:32;;;;;;;15.40;11.60;;;10.20;99.90;;;;;;5036718;28;20474;-49
2023/02/21 02:53:02;;;;;;;13.20;11.37;;;10.60;99.90;;;;;;5036768;28;20423;-49
2023/02/21 02:55:38;;;;;;;13.00;10.97;;;10.30;99.90;;;;;;5036698;28;20482;-48
2023/02/21 02:58:05;;;;;;;16.17;11.27;;;10.70;99.90;;;;;;5036406;28;20490;-49
2023/02/21 03:00:34;;;;;;;17.20;12.57;;;10.20;99.90;;;;;;5054323;28;20494;-48
2023/02/21 03:03:37;;;;;;;14.60;11.47;;;10.70;99.90;;;;;;5054429;28;20420;-48
2023/02/21 03:06:17;;;;;;;13.60;11.40;;;10.80;99.90;;;;;;5028609;28;20434;-49
2023/02/21 03:08:52;;;;;;;12.30;11.00;;;10.80;99.90;;;;;;5054086;28;20424;-49
2023/02/21 03:11:22;;;;;;;14.47;12.40;;;10.80;99.90;;;;;;5054467;28;20410;-48
2023/02/21 03:13:53;;;;;;;14.57;12.00;;;10.50;99.90;;;;;;5054376;28;20964;-47
2023/02/21 03:16:25;;;;;;;13.43;11.50;;;10.60;99.90;;;;;;5054221;28;20461;-49
2023/02/21 03:18:57;;;;;;;13.93;9.97;;;10.70;99.90;;;;;;5036047;28;20423;-49
2023/02/21 03:21:28;;;;;;;19.90;10.60;;;10.70;99.90;;;;;;5036391;28;20957;-49
2023/02/21 03:24:00;;;;;;;13.13;11.13;;;10.80;99.90;;;;;;5036259;28;20559;-49
2023/02/21 03:26:30;;;;;;;13.13;11.60;;;10.90;99.90;;;;;;5036122;28;20966;-49
2023/02/21 03:29:05;;;;;;;14.60;11.23;;;10.60;99.90;;;;;;5035839;28;20459;-48
2023/02/21 03:31:36;;;;;;;15.20;11.37;;;10.20;99.90;;;;;;5035934;28;20937;-48
2023/02/21 03:34:03;;;;;;;13.50;10.93;;;10.70;99.90;;;;;;5036181;28;20449;-48
2023/02/21 03:36:31;;;;;;;15.53;10.63;;;10.60;99.90;;;;;;5053983;28;20402;-49
2023/02/21 03:38:58;;;;;;;13.53;10.87;;;10.90;99.90;;;;;;5035548;28;20538;-49
2023/02/21 03:41:25;;;;;;;14.63;11.00;;;10.90;99.90;;;;;;5034991;28;20449;-49
2023/02/21 03:43:53;;;;;;;13.33;10.70;;;11.10;99.90;;;;;;5035554;28;20444;-47
2023/02/21 03:46:19;;;;;;;12.33;9.97;;;10.50;99.90;;;;;;5035724;28;20447;-48
2023/02/21 03:48:46;;;;;;;12.83;10.67;;;10.80;99.90;;;;;;5035417;28;20448;-49
2023/02/21 03:51:20;;;;;;;11.27;9.57;;;10.90;99.90;;;;;;5035614;28;20464;-48
2023/02/21 03:53:48;;;;;;;12.40;9.77;;;11.00;99.90;;;;;;5035618;28;20797;-49
2023/02/21 03:56:18;;;;;;;10.37;9.37;;;10.70;99.90;;;;;;5035753;28;20448;-49
2023/02/21 03:59:02;;;;;;;15.20;10.10;;;10.90;99.90;;;;;;5035167;28;20445;-49
2023/02/21 04:01:28;;;;;;;10.17;9.07;;;11.00;99.90;;;;;;5035387;28;20543;-49
2023/02/21 04:03:55;;;;;;;14.00;10.97;;;11.00;99.90;;;;;;5035127;28;20536;-49
2023/02/21 04:06:23;;;;;;;10.63;9.53;;;11.00;99.90;;;;;;5035229;28;20507;-48
2023/02/21 04:08:51;;;;;;;10.80;9.00;;;10.80;99.90;;;;;;5034850;28;20754;-50
2023/02/21 04:11:19;;;;;;;12.43;10.90;;;10.80;99.90;;;;;;5035183;28;20449;-50
2023/02/21 04:13:46;;;;;;;12.73;9.90;;;10.60;99.90;;;;;;5035072;28;20446;-49
2023/02/21 04:16:13;;;;;;;10.43;9.33;;;10.70;99.90;;;;;;5035006;28;20525;-49
2023/02/21 04:18:40;;;;;;;10.73;9.40;;;10.80;99.90;;;;;;5034710;28;20451;-49
2023/02/21 04:21:08;;;;;;;12.00;10.17;;;10.70;99.90;;;;;;5035233;28;20422;-49
2023/02/21 04:23:35;;;;;;;10.13;9.13;;;11.00;99.90;;;;;;5052674;28;20423;-51
2023/02/21 04:26:05;;;;;;;11.97;9.83;;;10.90;99.90;;;;;;5034747;28;20447;-50
2023/02/21 04:28:39;;;;;;;11.30;8.80;;;11.00;99.90;;;;;;5034310;28;20463;-49
2023/02/21 04:31:06;;;;;;;11.60;9.40;;;11.10;99.90;;;;;;5034913;28;20779;-53
2023/02/21 04:33:33;;;;;;;10.10;9.10;;;10.60;99.90;;;;;;5034568;28;20452;-48
2023/02/21 04:36:00;;;;;;;11.20;8.67;;;10.80;99.90;;;;;;5034354;28;20468;-48
2023/02/21 04:38:36;;;;;;;11.90;9.67;;;10.90;99.90;;;;;;5034353;28;20470;-49
2023/02/21 04:41:03;;;;;;;12.77;9.27;;;11.10;99.90;;;;;;5052701;28;20802;-49
2023/02/21 04:43:31;;;;;;;10.97;9.30;;;10.40;99.90;;;;;;5034541;28;20975;-48
2023/02/21 04:45:57;;;;;;;12.00;9.67;;;10.90;99.90;;;;;;5052314;28;20540;-49
2023/02/21 04:48:25;;;;;;;10.33;8.53;;;11.10;99.90;;;;;;5034119;28;20953;-49
2023/02/21 04:50:52;;;;;;;11.07;9.70;;;10.50;99.90;;;;;;5052203;28;20432;-49
2023/02/21 04:53:19;;;;;;;11.27;8.37;;;11.10;99.90;;;;;;5051527;28;20407;-49
2023/02/21 04:55:45;;;;;;;12.13;9.83;;;11.00;99.90;;;;;;5052291;28;20451;-49
2023/02/21 04:58:12;;;;;;;10.27;8.53;;;10.80;99.90;;;;;;5051883;28;21002;-49
2023/02/21 05:00:40;;;;;;;9.63;8.63;;;10.80;99.90;;;;;;5052542;28;20781;-49
2023/02/21 05:03:06;;;;;;;11.13;9.60;;;11.30;99.90;;;;;;5052138;28;20461;-51
2023/02/21 05:05:33;;;;;;;11.13;9.63;;;10.50;99.90;;;;;;5085375;23;20494;-50
2023/02/21 05:08:00;;;;;;;11.60;9.23;;;11.00;99.90;;;;;;5072911;28;20792;-50
2023/02/21 05:10:26;;;;;;;11.47;9.30;;;11.00;99.90;;;;;;5072333;28;20436;-49
2023/02/21 05:12:53;;;;;;;13.40;10.07;;;11.40;99.90;;;;;;5072742;28;20458;-51
2023/02/21 05:15:20;;;;;;;11.77;9.33;;;10.80;99.90;;;;;;5072701;28;20428;-51
2023/02/21 05:17:48;;;;;;;11.47;9.50;;;11.10;99.90;;;;;;5072982;28;20447;-50
2023/02/21 05:20:14;;;;;;;10.30;8.93;;;10.60;99.90;;;;;;5072681;28;20440;-51
2023/02/21 05:22:42;;;;;;;11.17;9.87;;;11.20;99.90;;;;;;5072645;28;20436;-49
2023/02/21 05:25:15;;;;;;;12.07;10.70;;;10.90;99.90;;;;;;5072349;28;20438;-50
2023/02/21 05:27:42;;;;;;;14.63;9.93;;;10.70;99.90;;;;;;5072294;28;20432;-50
2023/02/21 05:30:10;;;;;;;12.80;10.60;;;11.00;99.90;;;;;;5071958;28;20434;-50
2023/02/21 05:32:36;;;;;;;11.23;9.60;;;10.70;99.90;;;;;;5072185;28;20409;-50
2023/02/21 05:35:06;;;;;;;13.23;10.40;;;11.20;99.90;;;;;;5070691;28;20456;-49
2023/02/21 05:37:33;;;;;;;15.00;10.60;;;11.00;99.90;;;;;;5071045;28;20803;-49
2023/02/21 05:39:59;;;;;;;11.80;9.70;;;10.60;99.90;;;;;;5072096;28;20438;-50
2023/02/21 05:42:26;;;;;;;12.50;8.73;;;10.90;99.90;;;;;;5072073;28;20421;-50
2023/02/21 05:44:53;;;;;;;12.67;9.60;;;11.00;99.90;;;;;;5071888;28;20948;-50
2023/02/21 05:47:19;;;;;;;22.13;13.47;;;10.80;99.90;;;;;;5072079;28;20434;-50
2023/02/21 05:49:46;;;;;;;10.87;9.40;;;10.70;99.90;;;;;;5071620;28;20443;-51
2023/02/21 05:52:16;;;;;;;12.30;9.40;;;10.70;99.90;;;;;;5072096;28;20917;-49
2023/02/21 05:54:43;;;;;;;12.53;9.57;;;10.80;99.90;;;;;;5071986;28;20471;-49
2023/02/21 05:57:10;;;;;;;10.17;8.90;;;10.80;99.90;;;;;;5071640;28;20404;-51
2023/02/21 05:59:38;;;;;;;11.00;9.07;;;11.10;99.90;;;;;;5071469;28;20428;-50
2023/02/21 06:02:05;;;;;;;12.70;9.80;;;11.00;99.90;;;;;;5071879;28;20441;-49
2023/02/21 06:04:31;;;;;;;11.37;9.40;;;10.90;99.90;;;;;;5071180;28;20474;-50
2023/02/21 06:06:58;;;;;;;13.70;8.97;;;11.20;99.90;;;;;;5071822;28;20417;-50
2023/02/21 06:09:26;;;;;;;11.90;9.10;;;10.70;99.90;;;;;;5071371;28;20409;-51
2023/02/21 06:11:56;;;;;;;10.93;8.50;;;10.80;99.90;;;;;;5071725;28;20414;-52
2023/02/21 06:14:23;;;;;;;13.60;10.30;;;10.70;99.90;;;;;;5071508;28;20490;-50
2023/02/21 06:16:50;;;;;;;12.17;9.30;;;10.30;99.90;;;;;;5071570;28;20464;-50
2023/02/21 06:19:17;;;;;;;12.13;9.77;;;10.90;99.90;;;;;;5071469;28;20486;-50
2023/02/21 06:21:45;;;;;;;11.73;9.10;;;10.80;99.90;;;;;;5071678;28;20900;-49
2023/02/21 06:24:12;;;;;;;13.80;11.20;;;10.10;99.90;;;;;;5071390;28;20441;-50
2023/02/21 06:26:41;;;;;;;14.33;10.17;;;10.60;99.90;;;;;;5071482;28;20431;-51
2023/02/21 06:29:08;;;;;;;9.90;7.90;;;10.30;99.90;;;;;;5071183;28;20776;-50
2023/02/21 06:31:35;;;;;;;11.60;9.00;;;11.20;99.90;;;;;;5071644;28;20408;-50
2023/02/21 06:34:02;;;;;;;13.40;9.10;;;10.40;99.90;;;;;;5070923;28;20780;-51
2023/02/21 06:36:29;;;;;;;14.87;9.53;;;10.80;99.90;;;;;;5071586;28;20408;-50
2023/02/21 06:38:57;;;;;;;11.93;9.20;;;10.50;99.90;;;;;;5070706;28;20450;-51
2023/02/21 06:41:26;;;;;;;12.73;9.87;;;10.90;99.90;;;;;;5071222;28;20924;-50
2023/02/21 06:43:55;;;;;;;11.97;9.00;;;10.50;99.90;;;;;;5071212;28;20402;-50
2023/02/21 06:46:24;;;;;;;11.93;8.17;;;10.10;99.90;;;;;;5071258;28;20408;-50
2023/02/21 06:48:51;;;;;;;17.27;11.70;;;10.50;99.90;;;;;;5070424;28;20397;-50
2023/02/21 06:51:18;;;;;;;13.10;9.47;;;11.00;99.90;;;;;;5071431;28;20410;-50
2023/02/21 06:53:48;;;;;;;12.90;8.00;;;10.20;99.90;;;;;;5071030;28;20436;-50
2023/02/21 06:56:15;;;;;;;14.80;10.67;;;10.20;99.90;;;;;;5070097;28;20420;-51
2023/02/21 06:58:41;;;;;;;13.57;9.80;;;10.50;99.90;;;;;;5070583;28;20455;-50
2023/02/21 07:01:09;;;;;;;14.13;10.40;;;10.30;99.90;;;;;;5071662;28;20412;-51
2023/02/21 07:03:39;;;;;;;15.17;9.80;;;10.00;99.90;;;;;;5072165;28;20428;-49
2023/02/21 07:06:06;;;;;;;15.70;10.27;;;10.70;99.90;;;;;;5070044;28;20892;-51
2023/02/21 07:08:32;;;;;;;15.93;9.43;;;10.30;99.90;;;;;;5071301;28;20489;-50
2023/02/21 07:10:59;;;;;;;8.93;7.30;;;10.50;99.90;;;;;;5071865;28;20508;-51
2023/02/21 07:13:26;;;;;;;10.70;7.97;;;10.60;99.90;;;;;;5072650;28;20414;-49
2023/02/21 07:15:52;;;;;;;7.33;6.30;;;10.70;99.90;;;;;;5073115;28;20527;-51
2023/02/21 07:18:20;;;;;;;10.37;6.67;;;10.40;99.90;;;;;;5074253;28;20798;-51
2023/02/21 07:20:48;;;;;;;7.40;5.93;;;10.70;99.90;;;;;;5074847;28;20435;-50
2023/02/21 07:23:15;;;;;;;11.90;9.20;;;10.70;99.90;;;;;;5072886;28;21023;-50
2023/02/21 07:25:41;;;;;;;9.67;6.90;;;10.80;99.90;;;;;;5074477;28;20464;-50
2023/02/21 07:28:08;;;;;;;7.80;6.00;;;10.70;99.90;;;;;;5072564;28;20784;-51
2023/02/21 07:30:35;;;;;;;7.20;5.93;;;10.90;99.90;;;;;;5074868;28;20493;-49
2023/02/21 07:33:01;;;;;;;8.30;5.93;;;10.70;99.90;;;;;;5074774;28;20415;-50
2023/02/21 07:35:29;;;;;;;6.73;5.73;;;10.70;99.90;;;;;;5074275;28;20463;-49
2023/02/21 07:37:56;;;;;;;7.30;5.77;;;10.80;99.90;;;;;;5073849;28;20443;-50
2023/02/21 07:40:23;;;;;;;7.03;5.20;;;10.40;99.90;;;;;;5073921;28;20470;-51
2023/02/21 07:42:49;;;;;;;3.73;3.23;;;10.50;99.90;;;;;;5074095;28;20432;-51
2023/02/21 07:45:17;;;;;;;5.40;4.70;;;10.80;99.90;;;;;;5073933;28;20450;-51
2023/02/21 07:47:45;;;;;;;5.77;4.40;;;10.70;99.90;;;;;;5073988;28;20430;-50
2023/02/21 07:50:12;;;;;;;5.07;4.00;;;11.00;99.90;;;;;;5073607;28;20412;-51
2023/02/21 07:52:40;;;;;;;4.10;2.90;;;11.00;99.90;;;;;;5073929;28;20433;-50
2023/02/21 07:55:07;;;;;;;4.67;3.63;;;10.90;99.90;;;;;;5073763;28;20430;-50
2023/02/21 07:57:33;;;;;;;4.20;3.33;;;11.20;99.90;;;;;;5073628;28;20431;-50
2023/02/21 08:00:00;;;;;;;9.87;3.47;;;10.80;99.90;;;;;;5073534;28;20474;-49
2023/02/21 08:02:27;;;;;;;4.93;3.53;;;11.20;99.90;;;;;;5073246;28;20432;-50
2023/02/21 08:04:53;;;;;;;10.47;3.83;;;11.30;99.90;;;;;;5073377;28;20471;-51
2023/02/21 08:07:20;;;;;;;3.80;3.00;;;11.00;99.90;;;;;;5073558;28;20435;-49
2023/02/21 08:09:48;;;;;;;6.50;3.10;;;11.40;99.90;;;;;;5073167;28;20428;-50
2023/02/21 08:12:14;;;;;;;5.80;3.60;;;11.10;99.90;;;;;;5073461;28;20436;-51
2023/02/21 08:14:41;;;;;;;3.53;2.50;;;11.20;99.90;;;;;;5073234;28;20466;-50
2023/02/21 08:17:07;;;;;;;3.70;2.90;;;11.00;99.90;;;;;;5073552;28;20814;-50
2023/02/21 08:19:34;;;;;;;3.70;2.73;;;11.20;99.90;;;;;;5073220;28;21003;-50
2023/02/21 08:22:01;;;;;;;4.90;3.30;;;10.60;99.90;;;;;;5073282;28;20436;-50
2023/02/21 08:24:27;;;;;;;5.27;3.47;;;11.30;99.90;;;;;;5073723;28;20439;-50
2023/02/21 08:26:55;;;;;;;4.77;2.53;;;11.30;99.90;;;;;;5072624;28;20524;-51
2023/02/21 08:29:22;;;;;;;8.80;3.30;;;11.60;99.90;;;;;;5071377;28;20436;-51
2023/02/21 08:31:49;;;;;;;15.40;4.17;;;11.20;99.90;;;;;;5074886;28;20409;-50
2023/02/21 08:34:16;;;;;;;5.67;2.70;;;11.50;99.90;;;;;;5076353;28;20434;-50
2023/02/21 08:36:43;;;;;;;22.00;4.30;;;11.00;99.90;;;;;;5074988;28;20405;-50
2023/02/21 08:39:11;;;;;;;3.10;2.10;;;11.80;99.90;;;;;;5074096;28;20446;-51
2023/02/21 08:41:39;;;;;;;4.20;1.80;;;11.20;99.90;;;;;;5075069;28;20433;-50
2023/02/21 08:44:07;;;;;;;2.63;2.03;;;11.70;99.90;;;;;;5074023;28;20481;-50
2023/02/21 08:46:34;;;;;;;3.80;1.73;;;11.20;99.90;;;;;;5069304;28;20477;-51
2023/02/21 08:49:01;;;;;;;3.40;2.00;;;11.60;99.90;;;;;;5068800;28;20457;-51
2023/02/21 08:51:30;;;;;;;2.63;1.83;;;11.60;99.90;;;;;;5073348;28;20452;-50
2023/02/21 08:53:57;;;;;;;8.60;2.17;;;11.50;99.90;;;;;;5072570;28;20757;-50
2023/02/21 08:56:24;;;;;;;3.50;2.40;;;11.50;99.90;;;;;;5073829;28;20434;-50
2023/02/21 08:58:52;;;;;;;4.30;1.77;;;11.50;99.90;;;;;;5083745;28;20539;-51
2023/02/21 09:01:21;;;;;;;5.70;3.67;;;11.60;99.90;;;;;;5072113;28;20422;-51
2023/02/21 09:03:48;;;;;;;3.10;1.90;;;12.10;99.90;;;;;;5072353;28;20498;-50
2023/02/21 09:06:15;;;;;;;3.00;1.80;;;11.40;99.90;;;;;;5064782;28;20462;-50
2023/02/21 09:08:42;;;;;;;5.33;2.50;;;11.70;99.90;;;;;;5067423;28;20532;-52
2023/02/21 09:11:09;;;;;;;2.50;1.53;;;12.00;99.90;;;;;;5075830;28;20450;-51
2023/02/21 09:13:35;;;;;;;4.80;1.63;;;11.80;99.90;;;;;;5071050;28;20437;-49
2023/02/21 09:16:03;;;;;;;3.23;1.40;;;11.60;99.90;;;;;;5070327;28;20445;-50
2023/02/21 09:18:32;;;;;;;7.70;1.93;;;11.70;99.90;;;;;;5069812;28;20436;-50
2023/02/21 09:20:59;;;;;;;5.67;1.93;;;11.80;99.90;;;;;;5069624;28;20452;-50
2023/02/21 09:23:28;;;;;;;2.60;1.67;;;11.80;99.90;;;;;;5057263;28;20430;-49
2023/02/21 09:25:55;;;;;;;11.63;2.40;;;11.80;99.90;;;;;;5070082;28;20876;-50
2023/02/21 09:28:22;;;;;;;8.07;2.40;;;11.90;99.90;;;;;;5071208;28;20423;-50
2023/02/21 09:30:49;;;;;;;7.33;1.70;;;11.80;99.90;;;;;;5071903;28;20796;-50
2023/02/21 09:33:16;;;;;;;5.73;1.83;;;12.10;99.90;;;;;;5071191;28;20418;-50
2023/02/21 09:35:44;;;;;;;5.40;2.03;;;11.90;99.90;;;;;;5071667;28;20434;-51
2023/02/21 09:38:11;;;;;;;12.07;4.23;;;11.90;99.90;;;;;;5070965;28;20439;-51
2023/02/21 09:40:42;;;;;;;7.23;2.57;;;11.90;99.90;;;;;;5070043;28;20556;-50
2023/02/21 09:43:14;;;;;;;13.60;2.50;;;11.70;99.90;;;;;;5071739;28;20415;-50
2023/02/21 09:45:42;;;;;;;12.60;3.13;;;12.40;99.90;;;;;;5071628;28;20471;-50
2023/02/21 09:48:13;;;;;;;11.93;2.70;;;12.30;99.90;;;;;;5071383;28;20450;-50
2023/02/21 09:50:45;;;;;;;7.40;1.73;;;11.40;99.90;;;;;;5071767;28;20411;-50
2023/02/21 09:53:18;;;;;;;10.57;2.60;;;12.20;99.90;;;;;;5071565;28;20452;-50
2023/02/21 09:55:48;;;;;;;16.47;3.23;;;12.00;99.90;;;;;;5072364;28;20482;-50
2023/02/21 09:58:18;;;;;;;4.30;1.70;;;12.30;99.90;;;;;;5078922;28;20440;-50
2023/02/21 10:00:45;;;;;;;7.83;2.23;;;12.30;99.90;;;;;;5071823;28;20546;-50
2023/02/21 10:03:40;;;;;;;5.40;2.40;;;12.00;99.90;;;;;;5071364;28;20902;-51
2023/02/21 10:06:19;;;;;;;6.50;2.27;;;12.30;99.90;;;;;;5069990;28;20808;-51
2023/02/21 10:08:53;;;;;;;5.70;1.90;;;12.50;99.90;;;;;;5071234;28;20977;-50
2023/02/21 10:11:32;;;;;;;8.10;2.60;;;12.20;99.90;;;;;;5071091;28;20411;-50
2023/02/21 10:14:09;;;;;;;6.60;2.33;;;12.50;99.90;;;;;;5069762;28;20565;-50
2023/02/21 10:16:42;;;;;;;14.77;3.00;;;12.30;99.90;;;;;;5071390;28;20448;-50
2023/02/21 10:19:16;;;;;;;7.67;2.80;;;12.60;99.90;;;;;;5070660;28;20447;-50
2023/02/21 10:21:47;;;;;;;10.43;2.90;;;12.70;99.90;;;;;;5071432;28;20419;-50
2023/02/21 10:24:16;;;;;;;9.17;2.63;;;12.30;99.90;;;;;;5071063;28;20463;-50
2023/02/21 10:26:48;;;;;;;11.70;1.93;;;12.50;99.90;;;;;;5071126;28;20439;-51
2023/02/21 10:29:22;;;;;;;9.50;2.60;;;12.30;99.90;;;;;;5070761;28;20856;-51
2023/02/21 10:31:54;;;;;;;9.30;2.60;;;12.40;99.90;;;;;;5071499;28;20406;-50
2023/02/21 10:34:25;;;;;;;9.77;2.70;;;12.60;99.90;;;;;;5070875;28;20438;-50
2023/02/21 10:36:54;;;;;;;14.70;2.43;;;12.50;99.90;;;;;;5071235;28;20443;-49
2023/02/21 10:39:27;;;;;;;7.00;2.23;;;12.60;99.90;;;;;;5070657;28;21052;-50
2023/02/21 10:41:55;;;;;;;8.30;2.60;;;12.40;99.90;;;;;;5071041;28;20436;-51
2023/02/21 10:44:26;;;;;;;12.30;3.30;;;13.00;99.90;;;;;;5068965;28;20459;-51
2023/02/21 10:47:00;;;;;;;10.47;2.70;;;12.50;99.90;;;;;;5071152;28;20437;-50
2023/02/21 10:49:32;;;;;;;9.93;2.30;;;12.60;99.90;;;;;;5055524;28;20412;-50
2023/02/21 10:52:11;;;;;;;8.47;2.27;;;12.40;99.90;;;;;;5074848;28;20775;-51
2023/02/21 10:54:38;;;;;;;9.27;2.97;;;12.40;99.90;;;;;;5074757;28;20449;-50
2023/02/21 10:57:08;;;;;;;8.50;2.57;;;12.60;99.90;;;;;;5074700;28;20524;-50
2023/02/21 10:59:37;;;;;;;11.23;2.60;;;12.30;99.90;;;;;;5074146;28;20537;-51
2023/02/21 11:02:26;;;;;;;10.40;2.90;;;12.60;99.90;;;;;;5073558;28;20423;-49
2023/02/21 11:04:54;;;;;;;9.30;2.10;;;12.60;99.90;;;;;;5089034;22;20234;-50
2023/02/21 11:07:23;;;;;;;6.63;2.50;;;12.70;99.90;;;;;;5053568;28;20433;-51
2023/02/21 11:09:50;;;;;;;8.13;2.50;;;12.50;99.90;;;;;;5053921;28;20927;-49
2023/02/21 11:12:24;;;;;;;11.37;2.80;;;12.80;99.90;;;;;;5053638;28;20449;-49
2023/02/21 11:15:14;;;;;;;5.50;2.40;;;12.90;99.90;;;;;;5053979;28;20443;-51
2023/02/21 11:17:42;;;;;;;7.73;2.47;;;12.80;99.90;;;;;;5053847;28;20456;-49
2023/02/21 11:20:17;;;;;;;9.83;2.40;;;12.70;99.90;;;;;;5053506;28;20571;-50
2023/02/21 11:22:47;;;;;;;12.10;2.50;;;12.70;99.90;;;;;;5053897;28;20445;-50
2023/02/21 11:25:22;;;;;;;13.63;2.40;;;12.50;99.90;;;;;;5053054;28;20515;-49
2023/02/21 11:28:03;;;;;;;9.50;1.97;;;12.50;99.90;;;;;;5053612;28;20440;-51
2023/02/21 11:30:32;;;;;;;11.03;2.70;;;12.80;99.90;;;;;;5053789;28;20430;-49
2023/02/21 11:33:03;;;;;;;13.18;3.75;;;12.60;99.90;;;;;;5053228;28;20417;-50
2023/02/21 11:35:33;;;;;;;10.03;2.73;;;12.50;99.90;;;;;;5038115;28;20310;-50
2023/02/21 11:38:04;;;;;;;9.43;2.30;;;12.70;99.90;;;;;;5053439;28;20412;-49
2023/02/21 11:40:34;;;;;;;14.43;3.17;;;12.60;99.90;;;;;;5052852;28;20569;-51
2023/02/21 11:43:13;;;;;;;12.23;3.23;;;12.70;99.90;;;;;;5051865;28;20615;-50
2023/02/21 11:45:46;;;;;;;13.63;2.57;;;12.60;99.90;;;;;;5052862;28;20458;-50
2023/02/21 11:48:18;;;;;;;10.27;2.50;;;12.20;99.90;;;;;;5050887;28;20525;-49
2023/02/21 11:50:49;;;;;;;7.47;2.40;;;12.70;99.90;;;;;;5047691;28;20408;-49
2023/02/21 11:53:23;;;;;;;11.73;2.80;;;12.80;99.90;;;;;;5053548;28;20449;-50
2023/02/21 11:55:57;;;;;;;10.47;3.20;;;12.60;99.90;;;;;;5053614;28;20439;-49
2023/02/21 11:58:27;;;;;;;13.23;3.77;;;12.40;99.90;;;;;;5052680;28;20424;-50
2023/02/21 12:01:05;;;;;;;11.93;3.40;;;12.70;99.90;;;;;;5052500;28;20498;-49
2023/02/21 12:03:46;;;;;;;10.70;2.60;;;12.30;99.90;;;;;;5043067;28;20879;-51
2023/02/21 12:06:21;;;;;;;9.47;2.83;;;12.50;99.90;;;;;;5051621;28;20865;-48
2023/02/21 12:08:55;;;;;;;11.13;2.63;;;12.60;99.90;;;;;;5052247;28;20478;-51
2023/02/21 12:11:48;;;;;;;18.17;3.63;;;12.80;99.90;;;;;;5050988;28;20456;-50
2023/02/21 12:14:24;;;;;;;10.67;2.63;;;12.80;99.90;;;;;;5052557;28;20470;-50
2023/02/21 12:17:04;;;;;;;19.63;4.10;;;12.80;99.90;;;;;;5052633;28;20448;-50
2023/02/21 12:19:46;;;;;;;13.10;3.40;;;12.50;99.90;;;;;;5036668;28;20493;-49
2023/02/21 12:22:25;;;;;;;9.53;3.40;;;12.50;99.90;;;;;;5047762;28;20457;-49
2023/02/21 12:25:05;;;;;;;11.50;3.00;;;12.60;99.90;;;;;;5048095;28;20484;-50
2023/02/21 12:27:40;;;;;;;11.57;2.73;;;12.70;99.90;;;;;;5050299;28;20461;-49
2023/02/21 12:30:35;;;;;;;15.37;3.87;;;12.40;99.90;;;;;;5051065;28;20424;-49
2023/02/21 12:33:16;;;;;;;13.25;4.20;;;12.50;99.90;;;;;;5048595;28;20473;-50
2023/02/21 12:36:25;;;;;;;12.80;3.53;;;12.60;99.90;;;;;;5047702;28;20481;-49
2023/02/21 12:39:05;;;;;;;12.57;3.50;;;12.80;99.90;;;;;;5051734;28;20445;-49
2023/02/21 12:41:55;;;;;;;9.68;3.25;;;13.10;99.90;;;;;;5036506;28;20458;-50
2023/02/21 12:44:25;;;;;;;11.57;4.03;;;12.80;99.90;;;;;;5051550;28;20235;-50
2023/02/21 12:46:57;;;;;;;14.50;4.50;;;12.40;99.90;;;;;;5048154;28;20450;-49
2023/02/21 12:49:30;;;;;;;14.60;3.90;;;12.90;99.90;;;;;;5050234;28;20445;-51
2023/02/21 12:52:02;;;;;;;13.13;3.70;;;12.30;99.90;;;;;;5051945;28;20913;-50
2023/02/21 12:54:38;;;;;;;18.00;4.13;;;12.80;99.90;;;;;;5052382;28;20458;-49
2023/02/21 12:57:11;;;;;;;12.40;3.93;;;12.70;99.90;;;;;;5048681;28;20428;-49
2023/02/21 12:59:48;;;;;;;15.10;5.63;;;13.20;99.30;;;;;;5050002;28;20472;-49
2023/02/21 13:02:22;;;;;;;15.20;3.97;;;13.00;99.20;;;;;;5050590;28;20436;-50
2023/02/21 13:04:54;;;;;;;9.43;3.30;;;12.80;99.20;;;;;;5048320;28;20441;-50
2023/02/21 13:07:25;;;;;;;20.00;5.23;;;12.80;99.50;;;;;;5050386;28;20214;-49
2023/02/21 13:09:58;;;;;;;11.40;3.03;;;13.00;99.50;;;;;;5049769;28;20473;-50
2023/02/21 13:12:35;;;;;;;17.57;4.53;;;12.70;99.00;;;;;;5050246;28;20447;-49
2023/02/21 13:15:10;;;;;;;12.53;4.10;;;12.60;99.10;;;;;;5049959;28;21066;-50
2023/02/21 13:17:36;;;;;;;11.23;3.60;;;12.60;98.90;;;;;;5051272;28;20438;-49
2023/02/21 13:20:07;;;;;;;11.57;3.10;;;12.50;98.70;;;;;;5050530;28;20540;-49
2023/02/21 13:22:36;;;;;;;13.33;3.33;;;12.30;98.80;;;;;;5046069;28;20500;-51
2023/02/21 13:25:14;;;;;;;22.67;3.90;;;12.40;98.80;;;;;;5048212;28;20461;-49
2023/02/21 13:27:56;;;;;;;8.80;2.80;;;12.20;98.80;;;;;;5051549;28;20809;-50
2023/02/21 13:30:26;;;;;;;11.47;4.00;;;12.20;98.40;;;;;;5051310;28;20446;-50
2023/02/21 13:32:56;;;;;;;9.17;3.53;;;12.00;98.50;;;;;;5049904;28;20490;-49
2023/02/21 13:35:30;;;;;;;8.77;3.00;;;11.90;98.50;;;;;;5051116;28;20515;-49
2023/02/21 13:37:58;;;;;;;13.10;2.50;;;12.10;98.60;;;;;;5050765;28;20975;-50
2023/02/21 13:40:32;;;;;;;12.50;3.60;;;12.00;99.00;;;;;;5051139;28;20525;-50
2023/02/21 13:43:04;;;;;;;8.03;3.03;;;11.90;99.10;;;;;;5051400;28;20591;-50
2023/02/21 13:45:31;;;;;;;7.50;3.10;;;12.20;99.20;;;;;;5039514;28;20767;-50
2023/02/21 13:48:22;;;;;;;19.80;5.30;;;11.60;99.10;;;;;;5038465;28;20844;-50
2023/02/21 13:50:50;;;;;;;13.10;3.87;;;12.20;99.50;;;;;;5051217;28;20444;-50
2023/02/21 13:53:19;;;;;;;20.13;3.60;;;12.10;99.60;;;;;;5050716;28;20446;-51
2023/02/21 13:56:12;;;;;;;15.27;3.60;;;12.00;99.30;;;;;;5043450;28;20772;-49
2023/02/21 13:58:42;;;;;;;12.37;3.40;;;12.10;99.40;;;;;;5043798;28;20442;-50
2023/02/21 14:01:22;;;;;;;10.70;3.20;;;12.40;99.80;;;;;;5050902;28;20985;-49
2023/02/21 14:03:50;;;;;;;14.87;3.40;;;12.00;99.50;;;;;;5050925;28;20437;-50
2023/02/21 14:06:36;;;;;;;21.30;5.23;;;12.30;99.90;;;;;;5049538;28;20563;-50
2023/02/21 14:09:06;;;;;;;12.20;4.00;;;12.30;99.10;;;;;;5048882;28;20517;-49
2023/02/21 14:11:39;;;;;;;10.17;4.70;;;12.40;99.50;;;;;;5050884;28;20411;-50
2023/02/21 14:14:25;;;;;;;15.10;3.50;;;11.90;99.00;;;;;;5050860;28;20469;-50
2023/02/21 14:16:58;;;;;;;14.47;4.00;;;12.20;99.40;;;;;;5050731;28;20985;-50
2023/02/21 14:19:26;;;;;;;16.23;4.30;;;12.00;99.30;;;;;;5049745;28;20443;-49
2023/02/21 14:22:01;;;;;;;14.00;3.80;;;11.90;99.50;;;;;;5050690;28;20481;-52
2023/02/21 14:24:31;;;;;;;14.43;3.20;;;11.90;99.80;;;;;;5042458;28;20471;-50
2023/02/21 14:27:04;;;;;;;16.97;4.67;;;12.00;99.90;;;;;;5054742;28;20965;-50
2023/02/21 14:29:36;;;;;;;14.80;4.20;;;11.80;99.90;;;;;;5038944;28;20549;-50
2023/02/21 14:32:27;;;;;;;10.40;3.60;;;11.90;99.90;;;;;;5054584;28;20905;-49
2023/02/21 14:34:57;;;;;;;15.63;3.30;;;12.10;99.90;;;;;;5053461;28;20452;-50
2023/02/21 14:37:30;;;;;;;21.03;3.30;;;11.80;99.90;;;;;;5054819;28;20437;-49
2023/02/21 14:40:00;;;;;;;13.57;4.50;;;11.90;99.90;;;;;;5053636;28;20449;-51
2023/02/21 14:43:01;;;;;;;16.73;5.00;;;11.90;99.90;;;;;;5054369;28;20473;-50
2023/02/21 14:45:43;;;;;;;11.00;3.10;;;11.90;99.90;;;;;;5041951;28;20437;-50
2023/02/21 14:48:34;;;;;;;8.33;2.83;;;12.00;99.90;;;;;;5043750;28;20835;-50
2023/02/21 14:51:14;;;;;;;12.63;3.40;;;12.10;99.90;;;;;;5053795;28;20416;-50
2023/02/21 14:54:00;;;;;;;12.43;3.33;;;11.80;99.90;;;;;;5054208;28;20436;-49
2023/02/21 14:56:45;;;;;;;10.70;3.00;;;11.80;99.90;;;;;;5042291;28;20438;-49
2023/02/21 14:59:44;;;;;;;15.73;3.80;;;11.70;99.90;;;;;;5051986;28;20415;-50
2023/02/21 15:02:29;;;;;;;12.40;3.40;;;11.90;99.90;;;;;;5054322;28;20834;-51
2023/02/21 15:05:12;;;;;;;11.77;3.72;;;11.80;99.90;;;;;;5052586;28;20427;-50
2023/02/21 15:07:46;;;;;;;16.67;3.60;;;12.50;99.70;;;;;;5039635;28;20652;-49
2023/02/21 15:10:17;;;;;;;11.20;4.03;;;11.90;99.50;;;;;;5053492;28;20451;-51
2023/02/21 15:12:47;;;;;;;13.20;3.27;;;11.90;99.80;;;;;;5053967;28;20461;-50
2023/02/21 15:15:17;;;;;;;14.30;3.83;;;11.80;99.60;;;;;;5053953;28;20439;-50